Time;durP1;ratioP1;P1;durP2;ratioP2;P2;SDS_P1;SDS_P2;PMS_P1;PMS_P2;Temp;Humidity;BMP_temperature;BMP_pressure;BME280_temperature;BME280_humidity;BME280_pressure;Samples;Min_cycle;Max_cycle;Signal;HPM_P1;HPM_P2
2023/08/03 00:00:28;;;;;;;3.92;1.63;;;;;;;21.79;nan;98912.38;5084722;28;20986;-82
2023/08/03 00:02:54;;;;;;;2.90;1.60;;;;;;;21.79;nan;98916.81;5086608;28;20036;-81
2023/08/03 00:05:20;;;;;;;4.63;1.70;;;;;;;21.80;nan;98921.13;5090452;28;20591;-83
2023/08/03 00:07:49;;;;;;;3.55;1.50;;;;;;;21.78;nan;98926.53;5084327;28;20497;-81
2023/08/03 00:10:15;;;;;;;5.25;1.77;;;;;;;21.78;nan;98918.63;5082638;28;20753;-81
2023/08/03 00:12:42;;;;;;;2.83;1.50;;;;;;;21.79;nan;98925.56;5079221;28;20129;-82
2023/08/03 00:15:08;;;;;;;3.92;1.60;;;;;;;21.79;nan;98935.31;5075969;28;20024;-82
2023/08/03 00:17:34;;;;;;;2.67;1.50;;;;;;;21.79;nan;98925.56;5082789;28;20178;-82
2023/08/03 00:20:03;;;;;;;3.45;1.55;;;;;;;21.79;nan;98933.50;5080104;28;20684;-82
2023/08/03 00:22:29;;;;;;;1.90;1.33;;;;;;;21.80;nan;98923.75;5061315;28;20050;-83
2023/08/03 00:24:54;;;;;;;2.88;1.58;;;;;;;21.80;nan;98934.31;5080679;28;20134;-83
2023/08/03 00:27:20;;;;;;;2.83;1.70;;;;;;;21.80;nan;98932.50;5083931;28;20119;-82
2023/08/03 00:29:45;;;;;;;2.95;1.30;;;;;;;21.80;nan;98937.78;5081568;28;20093;-82
2023/08/03 00:32:10;;;;;;;2.85;1.30;;;;;;;21.80;nan;98929.03;5079762;28;20118;-82
2023/08/03 00:34:36;;;;;;;3.33;1.60;;;;;;;21.80;nan;98921.94;5074162;28;20059;-81
2023/08/03 00:37:01;;;;;;;2.03;1.25;;;;;;;21.80;nan;98931.69;5062926;28;20066;-81
2023/08/03 00:39:27;;;;;;;2.15;1.42;;;;;;;21.80;nan;98929.03;5079995;28;20051;-82
2023/08/03 00:41:52;;;;;;;4.20;1.27;;;;;;;21.80;nan;98931.69;5063352;28;20027;-82
2023/08/03 00:44:18;;;;;;;5.03;1.42;;;;;;;21.79;nan;98922.94;5079827;28;20032;-81
2023/08/03 00:46:43;;;;;;;4.22;1.33;;;;;;;21.80;nan;98921.13;5079811;28;20111;-81
2023/08/03 00:49:09;;;;;;;2.88;1.50;;;;;;;21.80;nan;98919.31;5079649;28;20453;-81
2023/08/03 00:51:34;;;;;;;2.13;1.38;;;;;;;21.79;nan;98924.75;5081653;28;20404;-82
2023/08/03 00:53:59;;;;;;;2.78;1.50;;;;;;;21.79;nan;98917.66;5079555;28;20051;-81
2023/08/03 00:56:25;;;;;;;3.95;1.50;;;;;;;21.80;nan;98919.31;5083430;28;20059;-84
2023/08/03 00:58:50;;;;;;;2.10;1.25;;;;;;;21.80;nan;98929.88;5081751;28;20276;-79
2023/08/03 01:01:15;;;;;;;3.33;1.33;;;;;;;21.80;nan;98926.41;5080113;28;20024;-82
2023/08/03 01:03:41;;;;;;;2.63;1.38;;;;;;;21.81;nan;98930.69;5075169;28;20139;-82
2023/08/03 01:06:06;;;;;;;2.47;1.40;;;;;;;21.81;nan;98930.69;5066267;28;20733;-81
2023/08/03 01:08:32;;;;;;;1.95;1.10;;;;;;;21.81;nan;98933.34;5081694;28;20556;-81
2023/08/03 01:10:57;;;;;;;1.30;1.00;;;;;;;21.80;nan;98921.94;5063865;28;20036;-80
2023/08/03 01:13:23;;;;;;;2.15;1.30;;;;;;;21.81;nan;98925.41;5061318;28;20027;-80
2023/08/03 01:15:48;;;;;;;2.20;1.40;;;;;;;21.82;nan;98924.41;5082034;28;20090;-78
2023/08/03 01:18:14;;;;;;;2.08;1.15;;;;;;;21.81;nan;98930.69;5080223;28;20031;-82
2023/08/03 01:20:40;;;;;;;2.72;1.70;;;;;;;21.80;nan;98918.47;5080496;28;20115;-83
2023/08/03 01:23:05;;;;;;;2.85;1.63;;;;;;;21.82;nan;98922.59;5072973;28;20036;-83
2023/08/03 01:25:31;;;;;;;3.75;1.30;;;;;;;;;;5078725;28;20073;-84
2023/08/03 01:27:56;;;;;;;5.53;1.88;;;;;;;21.84;nan;98918.00;5083263;28;20309;-82
2023/08/03 01:30:22;;;;;;;2.03;1.60;;;;;;;21.83;nan;98903.13;5079992;28;20117;-85
2023/08/03 01:32:47;;;;;;;5.25;1.25;;;;;;;21.84;nan;98914.50;5084272;28;20469;-82
2023/08/03 01:35:13;;;;;;;1.30;1.20;;;;;;;21.84;nan;98917.16;5072329;28;20111;-84
2023/08/03 01:37:38;;;;;;;6.10;1.17;;;;;;;21.85;nan;98921.47;5081962;28;20043;-82
2023/08/03 01:40:04;;;;;;;2.58;1.40;;;;;;;21.84;nan;98919.78;5063655;28;20058;-84
2023/08/03 01:42:30;;;;;;;4.07;1.33;;;;;;;21.84;nan;98943.56;5107451;27;20035;-83
2023/08/03 01:44:57;;;;;;;2.33;1.10;;;;;;;21.83;nan;98934.81;5091588;28;20036;-83
2023/08/03 01:47:23;;;;;;;2.33;1.63;;;;;;;21.84;nan;98940.94;5081738;28;21316;-83
2023/08/03 01:49:48;;;;;;;3.28;1.27;;;;;;;21.83;nan;98942.75;5081816;28;20043;-83
2023/08/03 01:52:13;;;;;;;2.90;1.27;;;;;;;21.82;nan;98943.72;5062753;28;20119;-84
2023/08/03 01:54:39;;;;;;;2.83;1.27;;;;;;;21.83;nan;98950.66;5079375;28;20027;-83
2023/08/03 01:57:04;;;;;;;2.08;1.42;;;;;;;21.82;nan;98938.44;5083847;28;20035;-81
2023/08/03 01:59:30;;;;;;;1.98;1.08;;;;;;;21.83;nan;98937.47;5081063;28;20028;-81
2023/08/03 02:01:55;;;;;;;1.80;1.30;;;;;;;21.82;nan;98935.81;5077818;28;20035;-81
2023/08/03 02:04:20;;;;;;;1.55;1.02;;;;;;;21.82;nan;98946.38;5079549;28;20414;-83
2023/08/03 02:06:48;;;;;;;6.03;1.25;;;;;;;21.81;nan;98939.44;5083711;28;20039;-83
2023/08/03 02:09:14;;;;;;;2.53;1.20;;;;;;;21.82;nan;98943.72;5080682;28;20024;-82
2023/08/03 02:11:39;;;;;;;1.45;1.23;;;;;;;21.84;nan;98943.56;5078733;28;20026;-84
2023/08/03 02:14:05;;;;;;;1.02;1.00;;;;;;;21.83;nan;98958.59;5083808;28;20057;-82
2023/08/03 02:16:31;;;;;;;1.20;1.10;;;;;;;21.83;nan;98958.59;5084231;28;20592;-84
2023/08/03 02:18:56;;;;;;;3.47;1.25;;;;;;;21.83;nan;98963.88;5063985;28;20036;-83
2023/08/03 02:21:22;;;;;;;1.00;0.90;;;;;;;21.84;nan;98962.06;5081762;28;20051;-82
2023/08/03 02:23:47;;;;;;;2.60;1.33;;;;;;;21.83;nan;98971.81;5087494;28;20189;-83
2023/08/03 02:26:12;;;;;;;1.33;1.10;;;;;;;;;;5063783;28;20096;-83
2023/08/03 02:28:38;;;;;;;1.73;1.23;;;;;;;;;;5082103;28;20464;-82
2023/08/03 02:31:03;;;;;;;2.47;1.00;;;;;;;;;;5079986;28;20498;-82
2023/08/03 02:33:28;;;;;;;1.93;1.17;;;;;;;21.83;nan;98971.81;5079279;28;21017;-80
2023/08/03 02:35:54;;;;;;;2.95;1.45;;;;;;;21.84;nan;98984.06;5071602;28;20431;-81
2023/08/03 02:38:19;;;;;;;2.42;1.20;;;;;;;;;;5063990;28;20745;-80
2023/08/03 02:40:44;;;;;;;1.77;1.00;;;;;;;21.83;nan;98979.72;5081532;28;20040;-80
2023/08/03 02:43:10;;;;;;;3.28;0.95;;;;;;;21.83;nan;98982.38;5081214;28;20043;-81
2023/08/03 02:45:35;;;;;;;1.33;1.20;;;;;;;21.85;nan;98991.00;5080271;28;20139;-81
2023/08/03 02:48:00;;;;;;;1.20;1.10;;;;;;;21.84;nan;98997.25;5080040;28;20031;-82
2023/08/03 02:50:26;;;;;;;1.25;1.02;;;;;;;21.84;nan;98999.06;5080871;28;20027;-82
2023/08/03 02:52:51;;;;;;;4.05;1.10;;;;;;;21.84;nan;99005.19;5075787;28;20357;-81
2023/08/03 02:55:16;;;;;;;3.67;1.00;;;;;;;21.83;nan;99008.78;5083537;28;20047;-82
2023/08/03 02:57:42;;;;;;;3.35;1.20;;;;;;;21.85;nan;99008.66;5063862;28;20026;-80
2023/08/03 03:00:09;;;;;;;1.33;0.90;;;;;;;21.85;nan;99012.13;5078344;28;20088;-81
2023/08/03 03:02:35;;;;;;;1.23;0.93;;;;;;;21.84;nan;99007.84;5075239;28;20024;-81
2023/08/03 03:05:01;;;;;;;1.98;1.08;;;;;;;21.84;nan;99025.47;5083953;28;20027;-83
2023/08/03 03:07:27;;;;;;;2.08;0.90;;;;;;;21.84;nan;99023.69;5080976;28;20035;-82
2023/08/03 03:09:52;;;;;;;2.70;1.27;;;;;;;21.84;nan;99028.13;5079856;28;20024;-83
2023/08/03 03:12:17;;;;;;;2.40;1.10;;;;;;;21.84;nan;99031.63;5077679;28;20028;-83
2023/08/03 03:14:43;;;;;;;2.03;0.90;;;;;;;21.84;nan;99015.75;5080687;28;20036;-82
2023/08/03 03:17:08;;;;;;;1.40;1.27;;;;;;;21.85;nan;99027.16;5079068;28;20035;-82
2023/08/03 03:19:34;;;;;;;1.80;0.90;;;;;;;21.85;nan;99027.16;5062369;28;20114;-84
2023/08/03 03:21:59;;;;;;;2.17;1.10;;;;;;;21.84;nan;99036.91;5078823;28;20059;-84
2023/08/03 03:24:24;;;;;;;4.32;0.95;;;;;;;21.85;nan;99027.97;5079194;28;20422;-82
2023/08/03 03:26:50;;;;;;;1.33;1.00;;;;;;;21.86;nan;99039.38;5085267;28;20546;-84
2023/08/03 03:29:15;;;;;;;2.35;0.93;;;;;;;21.85;nan;99038.53;5080425;28;20038;-83
2023/08/03 03:31:41;;;;;;;1.17;0.95;;;;;;;21.84;nan;99039.53;5078877;28;20088;-84
2023/08/03 03:34:06;;;;;;;3.13;1.00;;;;;;;21.85;nan;99037.72;5072633;28;20115;-84
2023/08/03 03:36:31;;;;;;;1.35;0.90;;;;;;;21.85;nan;99041.19;5061311;28;20118;-84
2023/08/03 03:38:57;;;;;;;3.83;1.05;;;;;;;21.84;nan;99047.47;5081152;28;20559;-83
2023/08/03 03:41:22;;;;;;;0.95;0.77;;;;;;;21.85;nan;99054.41;5077389;28;20055;-83
2023/08/03 03:43:47;;;;;;;1.90;1.02;;;;;;;21.85;nan;99057.03;5077343;28;20042;-80
2023/08/03 03:46:13;;;;;;;1.42;0.88;;;;;;;21.86;nan;99065.78;5076248;28;20421;-83
2023/08/03 03:48:38;;;;;;;1.98;0.93;;;;;;;21.85;nan;99069.44;5079961;28;20494;-84
2023/08/03 03:51:03;;;;;;;1.65;0.88;;;;;;;21.84;nan;99060.66;5078151;28;20833;-84
2023/08/03 03:53:29;;;;;;;1.20;0.80;;;;;;;21.82;nan;99078.47;5080045;28;20036;-83
2023/08/03 03:55:54;;;;;;;1.45;0.80;;;;;;;21.83;nan;99088.06;5069478;28;20080;-85
2023/08/03 03:58:19;;;;;;;1.85;0.90;;;;;;;21.83;nan;99098.63;5087113;28;20036;-85
2023/08/03 04:00:47;;;;;;;1.85;1.00;;;;;;;21.82;nan;99094.31;5086043;28;20043;-85
2023/08/03 04:03:13;;;;;;;1.95;1.00;;;;;;;21.83;nan;99095.97;5083151;28;20024;-82
2023/08/03 04:05:38;;;;;;;1.23;0.98;;;;;;;21.84;nan;99102.94;5084855;28;20114;-82
2023/08/03 04:08:04;;;;;;;1.52;1.10;;;;;;;21.82;nan;99112.81;5083472;28;20108;-82
2023/08/03 04:10:30;;;;;;;1.83;0.80;;;;;;;21.82;nan;99112.81;5084488;28;20779;-84
2023/08/03 04:12:55;;;;;;;2.05;0.82;;;;;;;21.82;nan;99128.66;5083054;28;20032;-82
2023/08/03 04:15:20;;;;;;;1.63;0.70;;;;;;;21.82;nan;99123.38;5083768;28;20738;-83
2023/08/03 04:17:48;;;;;;;2.53;0.90;;;;;;;21.82;nan;99128.66;5086072;28;20035;-84
2023/08/03 04:20:14;;;;;;;1.17;0.80;;;;;;;21.80;nan;99127.19;5082633;28;20031;-84
2023/08/03 04:22:39;;;;;;;1.73;1.00;;;;;;;21.79;nan;99144.84;5090038;28;20063;-85
2023/08/03 04:25:05;;;;;;;1.10;0.73;;;;;;;21.80;nan;99157.06;5090805;28;20034;-85
2023/08/03 04:27:30;;;;;;;0.85;0.85;;;;;;;21.80;nan;99135.94;5083273;28;20042;-85
2023/08/03 04:29:55;;;;;;;1.33;0.82;;;;;;;21.81;nan;99142.03;5084303;28;20031;-84
2023/08/03 04:32:21;;;;;;;1.20;0.60;;;;;;;21.82;nan;99147.16;5065689;28;20023;-84
2023/08/03 04:34:46;;;;;;;3.08;1.13;;;;;;;21.81;nan;99153.44;5077010;28;20036;-83
2023/08/03 04:37:11;;;;;;;1.00;0.80;;;;;;;21.81;nan;99164.00;5081425;28;20700;-83
2023/08/03 04:39:37;;;;;;;1.55;0.80;;;;;;;21.81;nan;99160.53;5082658;28;20066;-83
2023/08/03 04:42:02;;;;;;;1.00;0.80;;;;;;;21.80;nan;99164.16;5063523;28;20737;-84
2023/08/03 04:44:28;;;;;;;1.55;0.80;;;;;;;21.81;nan;99164.00;5081566;28;20035;-83
2023/08/03 04:46:53;;;;;;;2.88;0.98;;;;;;;21.80;nan;99165.00;5084655;28;20057;-83
2023/08/03 04:49:18;;;;;;;1.50;0.82;;;;;;;21.79;nan;99158.06;5084471;28;20032;-84
2023/08/03 04:51:44;;;;;;;1.67;1.00;;;;;;;21.79;nan;99165.97;5083578;28;20019;-83
2023/08/03 04:54:11;;;;;;;0.80;0.80;;;;;;;21.79;nan;99162.53;5083628;28;20034;-83
2023/08/03 04:56:36;;;;;;;1.35;0.70;;;;;;;21.79;nan;99165.16;5065468;28;20043;-84
2023/08/03 04:59:02;;;;;;;2.22;0.80;;;;;;;21.79;nan;99171.28;5066574;28;20135;-82
2023/08/03 05:01:27;;;;;;;2.15;1.08;;;;;;;21.77;nan;99167.94;5064001;28;20031;-84
2023/08/03 05:03:53;;;;;;;1.30;0.80;;;;;;;21.79;nan;99159.88;5087928;28;20119;-85
2023/08/03 05:06:18;;;;;;;1.65;0.90;;;;;;;21.79;nan;99159.88;5088925;28;20111;-84
2023/08/03 05:08:43;;;;;;;0.98;0.70;;;;;;;21.79;nan;99159.88;5083306;28;20046;-86
2023/08/03 05:11:09;;;;;;;0.65;0.60;;;;;;;21.79;nan;99163.34;5083293;28;20056;-85
2023/08/03 05:13:34;;;;;;;1.55;0.77;;;;;;;21.78;nan;99161.66;5080369;28;20032;-83
2023/08/03 05:15:59;;;;;;;1.60;0.63;;;;;;;21.80;nan;99166.81;5084457;28;20081;-82
2023/08/03 05:18:25;;;;;;;1.20;0.80;;;;;;;21.78;nan;99168.75;5085016;28;20081;-83
2023/08/03 05:20:50;;;;;;;0.70;0.70;;;;;;;21.77;nan;99170.56;5083431;28;20051;-83
2023/08/03 05:23:16;;;;;;;0.68;0.68;;;;;;;21.79;nan;99170.44;5089130;28;20059;-83
2023/08/03 05:25:41;;;;;;;2.50;0.68;;;;;;;21.82;nan;99181.50;5088196;28;20024;-84
2023/08/03 05:28:06;;;;;;;1.58;0.75;;;;;;;21.83;nan;99177.88;5081252;28;20032;-84
2023/08/03 05:30:32;;;;;;;1.80;0.90;;;;;;;;;;5083482;28;20096;-84
2023/08/03 05:32:57;;;;;;;3.83;0.75;;;;;;;21.82;nan;99192.09;5077822;28;20500;-84
2023/08/03 05:35:23;;;;;;;1.85;0.70;;;;;;;21.81;nan;99194.88;5088365;28;20838;-84
2023/08/03 05:37:52;;;;;;;1.88;0.98;;;;;;;21.80;nan;99199.34;5082590;28;20810;-84
2023/08/03 05:40:18;;;;;;;0.93;0.68;;;;;;;21.80;nan;99199.34;5080371;28;20745;-84
2023/08/03 05:42:43;;;;;;;2.05;0.90;;;;;;;21.79;nan;99212.72;5083151;28;20024;-84
2023/08/03 05:45:32;;;;;;;4.75;0.80;;;;;;;21.79;nan;99212.72;5088766;28;20032;-83
2023/08/03 05:47:58;;;;;;;1.98;0.88;;;;;;;21.79;nan;99205.63;5064049;28;20035;-85
2023/08/03 05:50:24;;;;;;;1.92;0.93;;;;;;;21.77;nan;99215.47;5063412;28;20042;-84
2023/08/03 05:52:50;;;;;;;1.48;0.80;;;;;;;21.77;nan;99217.31;5075506;28;20059;-84
2023/08/03 05:55:16;;;;;;;2.80;0.90;;;;;;;21.76;nan;99220.94;5080585;28;20063;-84
2023/08/03 05:57:41;;;;;;;0.90;0.70;;;;;;;21.76;nan;99229.69;5080898;28;20023;-81
2023/08/03 06:00:19;;;;;;;2.78;0.70;;;;;;;21.77;nan;99233.97;5080808;28;20036;-83
2023/08/03 06:02:45;;;;;;;1.58;0.70;;;;;;;21.78;nan;99229.53;5076245;28;20042;-82
2023/08/03 06:05:32;;;;;;;0.80;0.80;;;;;;;21.77;nan;99236.63;5084344;28;20102;-81
2023/08/03 06:07:57;;;;;;;2.05;0.68;;;;;;;21.79;nan;99233.84;5079841;28;20019;-83
2023/08/03 06:10:23;;;;;;;4.43;0.80;;;;;;;21.77;nan;99246.34;5063104;28;20032;-84
2023/08/03 06:12:48;;;;;;;1.42;0.90;;;;;;;21.77;nan;99241.91;5080539;28;20086;-84
2023/08/03 06:15:16;;;;;;;3.55;0.85;;;;;;;21.76;nan;99250.81;5083149;28;20040;-83
2023/08/03 06:17:41;;;;;;;2.22;0.90;;;;;;;21.75;nan;99253.63;5079350;28;20028;-82
2023/08/03 06:20:12;;;;;;;2.53;0.93;;;;;;;21.74;nan;99255.44;5077726;28;20426;-81
2023/08/03 06:22:38;;;;;;;1.40;0.77;;;;;;;21.76;nan;99255.28;5082766;28;20028;-82
2023/08/03 06:25:07;;;;;;;1.35;0.80;;;;;;;21.75;nan;99257.09;5077066;28;20035;-82
2023/08/03 06:27:32;;;;;;;;;;;;;;;21.76;nan;99258.75;5079309;28;20157;-82
2023/08/03 06:29:58;;;;;;;3.22;1.08;;;;;;;21.76;nan;99263.19;5079686;28;19915;-81
2023/08/03 06:32:26;;;;;;;3.05;1.10;;;;;;;21.76;nan;99264.03;5073848;28;20045;-82
2023/08/03 06:34:51;;;;;;;2.38;0.82;;;;;;;21.76;nan;99260.56;5071076;28;20036;-82
2023/08/03 06:37:17;;;;;;;1.65;0.80;;;;;;;21.76;nan;99256.09;5061835;28;20081;-80
2023/08/03 06:39:42;;;;;;;1.95;0.77;;;;;;;21.75;nan;99270.28;5078560;28;20210;-82
2023/08/03 06:42:07;;;;;;;3.88;1.13;;;;;;;21.76;nan;99255.28;5077376;28;20032;-82
2023/08/03 06:44:33;;;;;;;2.22;0.90;;;;;;;21.75;nan;99264.19;5078128;28;20157;-82
2023/08/03 06:46:58;;;;;;;2.10;0.95;;;;;;;21.75;nan;99259.72;5079593;28;20050;-82
2023/08/03 06:49:24;;;;;;;2.35;0.88;;;;;;;21.67;nan;99260.50;5080563;28;20050;-82
2023/08/03 06:51:49;;;;;;;2.47;1.08;;;;;;;21.34;nan;99272.50;5066647;28;20112;-81
2023/08/03 06:54:14;;;;;;;1.60;0.82;;;;;;;21.08;nan;99271.50;5081212;28;20051;-82
2023/08/03 06:56:39;;;;;;;1.92;0.80;;;;;;;20.76;nan;99275.38;5082755;28;20062;-82
2023/08/03 06:59:05;;;;;;;1.27;0.68;;;;;;;20.73;nan;99283.56;5083176;28;20145;-82
2023/08/03 07:01:30;;;;;;;2.88;0.60;;;;;;;20.67;nan;99285.97;5064433;28;20146;-82
2023/08/03 07:03:55;;;;;;;5.10;1.10;;;;;;;20.71;nan;99290.81;5086417;28;20080;-83
2023/08/03 07:06:21;;;;;;;3.97;1.13;;;;;;;21.00;nan;99295.16;5078575;28;20110;-82
2023/08/03 07:08:46;;;;;;;2.00;0.82;;;;;;;21.22;nan;99305.34;5082187;28;21057;-83
2023/08/03 07:11:12;;;;;;;6.03;1.15;;;;;;;21.34;nan;99309.47;5080278;28;20565;-83
2023/08/03 07:13:37;;;;;;;2.20;1.20;;;;;;;21.40;nan;99311.53;5083203;28;20100;-82
2023/08/03 07:16:07;;;;;;;2.17;0.88;;;;;;;21.43;nan;99307.75;5077472;28;20816;-82
2023/08/03 07:18:33;;;;;;;3.78;0.82;;;;;;;21.45;nan;99303.16;5079711;28;20043;-83
2023/08/03 07:21:02;;;;;;;4.38;0.77;;;;;;;21.46;nan;99315.38;5064072;28;20186;-82
2023/08/03 07:23:28;;;;;;;4.57;0.70;;;;;;;21.48;nan;99315.22;5080497;28;20031;-82
2023/08/03 07:25:53;;;;;;;3.28;1.20;;;;;;;21.47;nan;99319.69;5076272;28;20059;-82
2023/08/03 07:28:18;;;;;;;2.15;0.88;;;;;;;21.50;nan;99318.53;5079962;28;20143;-82
2023/08/03 07:30:44;;;;;;;3.17;1.13;;;;;;;21.49;nan;99328.28;5085728;28;20133;-83
2023/08/03 07:33:09;;;;;;;3.80;1.15;;;;;;;21.51;nan;99322.88;5084034;28;20935;-83
2023/08/03 07:35:37;;;;;;;2.45;0.93;;;;;;;21.50;nan;99329.09;5081653;28;20039;-83
2023/08/03 07:38:02;;;;;;;2.63;1.20;;;;;;;21.48;nan;99337.19;5085640;28;20497;-82
2023/08/03 07:40:27;;;;;;;3.30;1.05;;;;;;;21.49;nan;99328.28;5082537;28;20042;-82
2023/08/03 07:42:53;;;;;;;4.72;1.33;;;;;;;21.51;nan;99341.34;5086064;28;20034;-83
2023/08/03 07:45:18;;;;;;;2.78;1.08;;;;;;;21.50;nan;99344.94;5083719;28;20538;-82
2023/08/03 07:47:43;;;;;;;4.93;1.02;;;;;;;21.49;nan;99340.66;5083290;28;20024;-83
2023/08/03 07:50:09;;;;;;;3.45;1.10;;;;;;;21.49;nan;99353.84;5083369;28;20059;-83
2023/08/03 07:52:35;;;;;;;3.80;1.20;;;;;;;21.51;nan;99354.56;5085041;28;20675;-83
2023/08/03 07:55:00;;;;;;;6.13;1.13;;;;;;;21.50;nan;99356.38;5080790;28;20602;-82
2023/08/03 07:57:25;;;;;;;5.05;1.55;;;;;;;21.50;nan;99358.16;5080616;28;20035;-82
2023/08/03 07:59:51;;;;;;;2.08;1.08;;;;;;;21.53;nan;99355.22;5084135;28;20024;-81
2023/08/03 08:02:16;;;;;;;2.60;0.95;;;;;;;21.52;nan;99354.41;5067013;28;20028;-82
2023/08/03 08:04:42;;;;;;;2.78;0.80;;;;;;;21.53;nan;99356.06;5084222;28;20360;-83
2023/08/03 08:07:07;;;;;;;2.13;0.90;;;;;;;21.54;nan;99357.72;5084249;28;20027;-82
2023/08/03 08:09:32;;;;;;;3.03;1.15;;;;;;;21.54;nan;99357.72;5084398;28;20036;-82
2023/08/03 08:11:58;;;;;;;2.78;1.02;;;;;;;21.54;nan;99364.81;5067029;28;20019;-81
2023/08/03 08:14:23;;;;;;;3.08;0.88;;;;;;;21.56;nan;99370.81;5076667;28;20028;-83
2023/08/03 08:16:48;;;;;;;2.47;0.70;;;;;;;21.55;nan;99367.31;5084590;28;20050;-83
2023/08/03 08:19:14;;;;;;;2.10;0.77;;;;;;;21.56;nan;99370.81;5082205;28;20031;-83
2023/08/03 08:21:39;;;;;;;2.25;0.90;;;;;;;21.57;nan;99372.47;5081945;28;20860;-81
2023/08/03 08:24:04;;;;;;;3.13;1.17;;;;;;;21.56;nan;99365.53;5075292;28;20767;-83
2023/08/03 08:26:31;;;;;;;2.40;0.82;;;;;;;21.56;nan;99381.38;5088814;28;20031;-83
2023/08/03 08:28:58;;;;;;;3.53;0.88;;;;;;;21.56;nan;99379.56;5080757;28;20058;-82
2023/08/03 08:31:24;;;;;;;3.97;1.17;;;;;;;21.56;nan;99382.19;5080873;28;20036;-82
2023/08/03 08:33:50;;;;;;;2.70;1.30;;;;;;;21.55;nan;99391.06;5066482;28;20032;-84
2023/08/03 08:36:15;;;;;;;1.40;1.00;;;;;;;21.57;nan;99394.41;5081368;28;20561;-83
2023/08/03 08:38:41;;;;;;;3.22;0.90;;;;;;;21.57;nan;99393.59;5083613;28;20048;-86
2023/08/03 08:41:06;;;;;;;1.83;0.90;;;;;;;21.57;nan;99409.44;5065939;28;20506;-82
2023/08/03 08:43:32;;;;;;;1.77;0.80;;;;;;;21.55;nan;99406.91;5069153;28;20144;-82
2023/08/03 08:45:57;;;;;;;2.40;0.68;;;;;;;21.56;nan;99418.34;5083589;28;20261;-83
2023/08/03 08:48:22;;;;;;;1.15;0.68;;;;;;;21.55;nan;99412.19;5065445;28;20146;-81
2023/08/03 08:50:49;;;;;;;2.65;0.80;;;;;;;21.55;nan;99417.47;5065394;28;20028;-81
2023/08/03 08:53:15;;;;;;;4.32;0.80;;;;;;;21.55;nan;99416.66;5081492;28;20020;-81
2023/08/03 08:55:40;;;;;;;2.95;0.90;;;;;;;21.56;nan;99418.34;5084883;28;20032;-83
2023/08/03 08:58:05;;;;;;;2.28;0.90;;;;;;;21.56;nan;99415.69;5065072;28;20035;-83
2023/08/03 09:00:41;;;;;;;1.40;0.90;;;;;;;21.56;nan;99423.63;5081504;28;20042;-83
2023/08/03 09:03:06;;;;;;;1.73;0.90;;;;;;;21.56;nan;99423.63;5088844;28;20103;-83
2023/08/03 09:05:33;;;;;;;1.77;0.68;;;;;;;21.55;nan;99427.22;5078529;28;20205;-82
2023/08/03 09:08:04;;;;;;;3.75;0.90;;;;;;;21.56;nan;99426.28;5081890;28;20077;-82
2023/08/03 09:10:48;;;;;;;1.63;0.85;;;;;;;21.55;nan;99430.69;5081400;28;20145;-83
2023/08/03 09:13:35;;;;;;;1.73;0.80;;;;;;;21.56;nan;99440.31;5088317;28;20077;-83
2023/08/03 09:16:01;;;;;;;3.17;0.98;;;;;;;21.56;nan;99439.47;5070785;28;20035;-84
2023/08/03 09:18:29;;;;;;;1.58;0.63;;;;;;;21.56;nan;99450.03;5063692;28;20092;-82
2023/08/03 09:21:11;;;;;;;3.83;1.27;;;;;;;21.56;nan;99450.03;5081446;28;20157;-83
2023/08/03 09:23:37;;;;;;;2.60;0.90;;;;;;;21.57;nan;99449.06;5077088;28;20019;-83
2023/08/03 09:26:03;;;;;;;4.68;1.05;;;;;;;21.55;nan;99456.28;5082184;28;20034;-82
2023/08/03 09:28:39;;;;;;;3.05;0.88;;;;;;;21.55;nan;99451.00;5080704;28;20450;-83
2023/08/03 09:31:06;;;;;;;2.42;1.25;;;;;;;21.55;nan;99451.81;5062830;28;20028;-83
2023/08/03 09:33:32;;;;;;;2.40;0.82;;;;;;;21.55;nan;99451.00;5056774;28;20085;-83
2023/08/03 09:36:15;;;;;;;1.63;0.90;;;;;;;21.56;nan;99457.97;5081137;28;20024;-82
2023/08/03 09:38:41;;;;;;;3.05;0.75;;;;;;;21.55;nan;99451.00;5081005;28;20932;-79
2023/08/03 09:41:08;;;;;;;1.55;0.73;;;;;;;21.57;nan;99454.34;5079022;28;20023;-82
2023/08/03 09:43:34;;;;;;;0.70;0.50;;;;;;;21.57;nan;99455.16;5076979;28;20133;-82
2023/08/03 09:46:01;;;;;;;0.70;0.70;;;;;;;21.60;nan;99461.94;5076328;28;20085;-76
2023/08/03 09:48:26;;;;;;;3.63;0.98;;;;;;;21.59;nan;99457.66;5076534;28;20039;-78
2023/08/03 09:50:53;;;;;;;1.88;0.73;;;;;;;21.59;nan;99460.28;5062345;28;20089;-78
2023/08/03 09:53:20;;;;;;;1.67;0.75;;;;;;;21.61;nan;99468.91;5073587;28;20027;-77
2023/08/03 09:55:53;;;;;;;1.95;0.80;;;;;;;21.60;nan;99461.94;5078990;28;20491;-78
2023/08/03 09:58:22;;;;;;;2.55;1.08;;;;;;;21.60;nan;99476.00;5079997;28;20057;-78
2023/08/03 10:00:49;;;;;;;1.98;0.98;;;;;;;21.60;nan;99480.44;5061884;28;20032;-78
2023/08/03 10:03:18;;;;;;;1.15;0.80;;;;;;;21.60;nan;99480.44;5080326;28;20039;-78
2023/08/03 10:05:50;;;;;;;2.42;0.82;;;;;;;21.60;nan;99485.72;5075614;28;20491;-78
2023/08/03 10:08:24;;;;;;;2.22;0.95;;;;;;;21.58;nan;99477.13;5061287;28;20914;-78
2023/08/03 10:10:52;;;;;;;2.95;0.93;;;;;;;21.59;nan;99486.72;5062162;28;20034;-78
2023/08/03 10:13:17;;;;;;;2.03;0.95;;;;;;;21.60;nan;99493.66;5072537;28;20028;-78
2023/08/03 10:15:43;;;;;;;1.38;0.75;;;;;;;21.61;nan;99495.31;5060296;28;20039;-78
2023/08/03 10:18:08;;;;;;;1.92;1.33;;;;;;;21.60;nan;99499.75;5061332;28;20408;-77
2023/08/03 10:20:35;;;;;;;2.25;0.88;;;;;;;21.61;nan;99492.66;5079099;28;20066;-77
2023/08/03 10:23:10;;;;;;;0.75;0.60;;;;;;;21.60;nan;99493.66;5076046;28;20598;-77
2023/08/03 10:25:54;;;;;;;1.27;0.70;;;;;;;21.61;nan;99495.31;5056583;28;20405;-77
2023/08/03 10:28:21;;;;;;;1.60;0.93;;;;;;;21.61;nan;99495.31;5077724;28;20028;-78
2023/08/03 10:31:05;;;;;;;2.13;0.73;;;;;;;21.60;nan;99498.94;5077981;28;20030;-77
2023/08/03 10:33:46;;;;;;;1.17;0.60;;;;;;;21.62;nan;99494.34;5075452;28;20393;-78
2023/08/03 10:36:37;;;;;;;1.83;0.80;;;;;;;21.61;nan;99487.38;5078813;28;20534;-77
2023/08/03 10:39:07;;;;;;;1.00;0.70;;;;;;;21.62;nan;99481.16;5078984;28;20089;-77
2023/08/03 10:41:37;;;;;;;2.30;0.88;;;;;;;21.60;nan;99486.56;5081118;28;20027;-77
2023/08/03 10:44:06;;;;;;;3.80;0.80;;;;;;;21.61;nan;99492.66;5070764;28;20035;-78
2023/08/03 10:46:32;;;;;;;1.87;0.87;;;;;;;21.61;nan;99503.22;5078787;28;20347;-77
2023/08/03 10:48:57;;;;;;;3.63;0.90;;;;;;;21.61;nan;99498.81;5062410;28;20142;-78
2023/08/03 10:51:23;;;;;;;2.42;0.75;;;;;;;21.62;nan;99503.13;5062974;28;20035;-79
2023/08/03 10:53:48;;;;;;;1.77;0.73;;;;;;;21.62;nan;99510.22;5056485;28;20067;-77
2023/08/03 10:56:14;;;;;;;1.35;0.60;;;;;;;21.63;nan;99509.22;5075811;28;20624;-77
2023/08/03 10:58:50;;;;;;;1.98;0.80;;;;;;;21.61;nan;99509.38;5078303;28;20559;-79
2023/08/03 11:01:23;;;;;;;1.35;0.80;;;;;;;21.62;nan;99512.84;5077189;28;20430;-78
2023/08/03 11:03:49;;;;;;;1.98;1.17;;;;;;;21.62;nan;99510.22;5055550;28;20829;-78
2023/08/03 11:06:16;;;;;;;1.38;0.70;;;;;;;21.62;nan;99511.03;5079001;28;20074;-77
2023/08/03 11:08:43;;;;;;;0.65;0.65;;;;;;;21.63;nan;99510.06;5078981;28;20921;-79
2023/08/03 11:11:12;;;;;;;1.27;0.52;;;;;;;21.65;nan;99507.25;5078080;28;20750;-78
2023/08/03 11:13:39;;;;;;;1.23;0.75;;;;;;;21.65;nan;99507.25;5082080;28;20108;-78
2023/08/03 11:16:05;;;;;;;2.55;0.82;;;;;;;21.65;nan;99507.25;5073783;28;20057;-78
2023/08/03 11:18:33;;;;;;;1.33;0.60;;;;;;;21.67;nan;99500.03;5078165;28;20802;-78
2023/08/03 11:20:58;;;;;;;0.60;0.60;;;;;;;21.65;nan;99500.16;5077282;28;20034;-77
2023/08/03 11:23:24;;;;;;;1.38;0.70;;;;;;;21.64;nan;99509.06;5060135;28;20024;-78
2023/08/03 11:25:49;;;;;;;1.20;0.70;;;;;;;21.66;nan;99508.91;5076829;28;20114;-77
2023/08/03 11:28:23;;;;;;;1.83;0.80;;;;;;;21.66;nan;99498.34;5078984;28;20133;-79
2023/08/03 11:30:48;;;;;;;0.90;0.68;;;;;;;21.65;nan;99491.41;5077231;28;20036;-78
2023/08/03 11:33:14;;;;;;;1.30;0.82;;;;;;;21.66;nan;99501.00;5070712;28;20042;-77
2023/08/03 11:35:40;;;;;;;6.30;0.85;;;;;;;21.61;nan;99490.03;5078729;28;20085;-78
2023/08/03 11:38:06;;;;;;;2.83;0.70;;;;;;;21.57;nan;99494.78;5075824;28;20878;-78
2023/08/03 11:40:32;;;;;;;1.67;1.00;;;;;;;21.63;nan;99494.19;5076637;28;20061;-79
2023/08/03 11:42:57;;;;;;;1.27;0.82;;;;;;;21.66;nan;99480.69;5072426;28;20032;-78
2023/08/03 11:45:23;;;;;;;3.53;0.88;;;;;;;21.68;nan;99488.50;5070436;28;20108;-77
2023/08/03 11:47:48;;;;;;;2.60;0.90;;;;;;;21.69;nan;99493.63;5077948;28;20496;-77
2023/08/03 11:50:17;;;;;;;1.58;1.27;;;;;;;21.72;nan;99508.34;5075192;28;20081;-79